CCA2519 ZUUU-ZPPP
Flight info
| Callsign | CCA2519 |
|---|---|
| Flight time | 1h 4m |
| Altitude | 34100 |
| Route | LUVEN9W LUVEN G212 SGM |
| Aircraft | A321/M-SDE3FGHIRWY/LB1 |
Departure
| Time | 2026-05-05 12:37 |
|---|---|
| Airport | Chengdu Shuangliu International Airport (ZUUU) |
Arrival
| Time | 2026-05-05 13:41 |
|---|---|
| Airport | Kunming Changshui International Airport (ZPPP) |
| Time | Latitude | Longitude | Altitude | Speed | Heading |
|---|---|---|---|---|---|
| 2026-05-05 12:23 | 30.56924 | 103.94988 | 1647 ft | 0 kts | 21° |
| 2026-05-05 12:30 | 30.56916 | 103.94984 | 1647 ft | 3 kts | 21° |
| 2026-05-05 12:30 | 30.56898 | 103.94976 | 1647 ft | 3 kts | 21° |
| 2026-05-05 12:30 | 30.56880 | 103.94970 | 1647 ft | 3 kts | 0° |
| 2026-05-05 12:30 | 30.56861 | 103.94973 | 1647 ft | 3 kts | 330° |
| 2026-05-05 12:31 | 30.56846 | 103.94987 | 1647 ft | 3 kts | 301° |
| 2026-05-05 12:31 | 30.56843 | 103.94994 | 1647 ft | 0 kts | 295° |
| 2026-05-05 12:31 | 30.56843 | 103.94993 | 1647 ft | 0 kts | 295° |
| 2026-05-05 12:32 | 30.56848 | 103.94979 | 1647 ft | 5 kts | 293° |
| 2026-05-05 12:32 | 30.56876 | 103.94904 | 1647 ft | 15 kts | 293° |
| 2026-05-05 12:32 | 30.56926 | 103.94761 | 1647 ft | 21 kts | 292° |
| 2026-05-05 12:32 | 30.56961 | 103.94637 | 1647 ft | 12 kts | 265° |
| 2026-05-05 12:33 | 30.56904 | 103.94583 | 1647 ft | 11 kts | 201° |
| 2026-05-05 12:33 | 30.56810 | 103.94541 | 1647 ft | 19 kts | 202° |
| 2026-05-05 12:33 | 30.56656 | 103.94467 | 1647 ft | 27 kts | 202° |
| 2026-05-05 12:33 | 30.56484 | 103.94386 | 1647 ft | 26 kts | 202° |
| 2026-05-05 12:34 | 30.56325 | 103.94312 | 1647 ft | 12 kts | 202° |
| 2026-05-05 12:34 | 30.56275 | 103.94257 | 1647 ft | 9 kts | 259° |
| 2026-05-05 12:34 | 30.56289 | 103.94190 | 1647 ft | 8 kts | 289° |
| 2026-05-05 12:34 | 30.56306 | 103.94137 | 1647 ft | 6 kts | 293° |
| 2026-05-05 12:35 | 30.56326 | 103.94083 | 1647 ft | 9 kts | 294° |
| 2026-05-05 12:35 | 30.56364 | 103.94027 | 1647 ft | 8 kts | 334° |
| 2026-05-05 12:35 | 30.56409 | 103.94034 | 1647 ft | 6 kts | 20° |
| 2026-05-05 12:35 | 30.56439 | 103.94047 | 1648 ft | 6 kts | 21° |
| 2026-05-05 12:36 | 30.56617 | 103.94130 | 1649 ft | 61 kts | 22° |
| 2026-05-05 12:36 | 30.57211 | 103.94405 | 1645 ft | 120 kts | 21° |
| 2026-05-05 12:36 | 30.58141 | 103.94836 | 1648 ft | 166 kts | 21° |
| 2026-05-05 12:36 | 30.59316 | 103.95380 | 1812 ft | 189 kts | 22° |
| 2026-05-05 12:37 | 30.60528 | 103.95942 | 2472 ft | 187 kts | 22° |
| 2026-05-05 12:37 | 30.61732 | 103.96495 | 3061 ft | 187 kts | 22° |
| 2026-05-05 12:37 | 30.62942 | 103.97051 | 3631 ft | 185 kts | 21° |
| 2026-05-05 12:37 | 30.64147 | 103.97603 | 4084 ft | 187 kts | 22° |
| 2026-05-05 12:38 | 30.65370 | 103.98159 | 4511 ft | 190 kts | 21° |
| 2026-05-05 12:38 | 30.66612 | 103.98719 | 4844 ft | 196 kts | 21° |
| 2026-05-05 12:38 | 30.67933 | 103.99330 | 5016 ft | 213 kts | 25° |
| 2026-05-05 12:38 | 30.69063 | 104.00478 | 5142 ft | 226 kts | 60° |
| 2026-05-05 12:39 | 30.69831 | 104.02146 | 5275 ft | 244 kts | 63° |
| 2026-05-05 12:39 | 30.70665 | 104.03983 | 5414 ft | 269 kts | 63° |
| 2026-05-05 12:39 | 30.71576 | 104.05934 | 5865 ft | 279 kts | 62° |
| 2026-05-05 12:39 | 30.72529 | 104.07916 | 6492 ft | 283 kts | 62° |
| 2026-05-05 12:40 | 30.73512 | 104.09918 | 7141 ft | 286 kts | 61° |
| 2026-05-05 12:40 | 30.74514 | 104.11936 | 7775 ft | 290 kts | 60° |
| 2026-05-05 12:40 | 30.75508 | 104.13965 | 8415 ft | 294 kts | 65° |
| 2026-05-05 12:40 | 30.76020 | 104.16277 | 8994 ft | 295 kts | 91° |
| 2026-05-05 12:41 | 30.75657 | 104.18607 | 9587 ft | 294 kts | 116° |
| 2026-05-05 12:41 | 30.74511 | 104.20548 | 10137 ft | 292 kts | 139° |
| 2026-05-05 12:41 | 30.72830 | 104.21773 | 10672 ft | 290 kts | 163° |
| 2026-05-05 12:41 | 30.70854 | 104.22126 | 11228 ft | 289 kts | 185° |
| 2026-05-05 12:42 | 30.68906 | 104.21582 | 11804 ft | 290 kts | 200° |
| 2026-05-05 12:42 | 30.67000 | 104.20782 | 12371 ft | 291 kts | 199° |
| 2026-05-05 12:42 | 30.65089 | 104.19981 | 12944 ft | 292 kts | 199° |
| 2026-05-05 12:42 | 30.63170 | 104.19182 | 13480 ft | 294 kts | 199° |
| 2026-05-05 12:43 | 30.61237 | 104.18379 | 13942 ft | 296 kts | 199° |
| 2026-05-05 12:43 | 30.59291 | 104.17571 | 14371 ft | 299 kts | 199° |
| 2026-05-05 12:43 | 30.57325 | 104.16755 | 14814 ft | 301 kts | 199° |
| 2026-05-05 12:43 | 30.55339 | 104.15932 | 15233 ft | 305 kts | 200° |
| 2026-05-05 12:44 | 30.53332 | 104.15101 | 15663 ft | 307 kts | 200° |
| 2026-05-05 12:44 | 30.51310 | 104.14265 | 16101 ft | 310 kts | 200° |
| 2026-05-05 12:44 | 30.49261 | 104.13415 | 16513 ft | 313 kts | 200° |
| 2026-05-05 12:44 | 30.47222 | 104.12571 | 16928 ft | 316 kts | 201° |
| 2026-05-05 12:45 | 30.45135 | 104.11665 | 17121 ft | 327 kts | 202° |
| 2026-05-05 12:45 | 30.42981 | 104.10667 | 17249 ft | 339 kts | 203° |
| 2026-05-05 12:45 | 30.40761 | 104.09610 | 17382 ft | 351 kts | 204° |
| 2026-05-05 12:45 | 30.38464 | 104.08513 | 17512 ft | 362 kts | 203° |
| 2026-05-05 12:46 | 30.36097 | 104.07391 | 17634 ft | 373 kts | 203° |
| 2026-05-05 12:46 | 30.33666 | 104.06245 | 17765 ft | 382 kts | 203° |
| 2026-05-05 12:46 | 30.31174 | 104.05076 | 17900 ft | 390 kts | 203° |
| 2026-05-05 12:46 | 30.28624 | 104.03924 | 18052 ft | 397 kts | 199° |
| 2026-05-05 12:47 | 30.25917 | 104.03210 | 18259 ft | 402 kts | 188° |
| 2026-05-05 12:47 | 30.23112 | 104.03101 | 18497 ft | 406 kts | 179° |
| 2026-05-05 12:47 | 30.20283 | 104.03229 | 18739 ft | 408 kts | 180° |
| 2026-05-05 12:47 | 30.17439 | 104.03342 | 18988 ft | 409 kts | 180° |
| 2026-05-05 12:48 | 30.14580 | 104.03446 | 19244 ft | 411 kts | 180° |
| 2026-05-05 12:48 | 30.11711 | 104.03545 | 19489 ft | 413 kts | 180° |
| 2026-05-05 12:48 | 30.08832 | 104.03642 | 19737 ft | 415 kts | 180° |
| 2026-05-05 12:48 | 30.05937 | 104.03743 | 19973 ft | 417 kts | 180° |
| 2026-05-05 12:49 | 30.03034 | 104.03848 | 20222 ft | 418 kts | 180° |
| 2026-05-05 12:49 | 30.00118 | 104.03957 | 20471 ft | 420 kts | 180° |
| 2026-05-05 12:49 | 29.97232 | 104.04069 | 20711 ft | 422 kts | 180° |
| 2026-05-05 12:49 | 29.94289 | 104.04184 | 20971 ft | 424 kts | 180° |
| 2026-05-05 12:50 | 29.91290 | 104.04302 | 21235 ft | 426 kts | 180° |
| 2026-05-05 12:50 | 29.88355 | 104.04418 | 21495 ft | 428 kts | 180° |
| 2026-05-05 12:50 | 29.85372 | 104.04534 | 21738 ft | 429 kts | 180° |
| 2026-05-05 12:50 | 29.82380 | 104.04649 | 21993 ft | 431 kts | 180° |
| 2026-05-05 12:51 | 29.79371 | 104.04762 | 22246 ft | 433 kts | 180° |
| 2026-05-05 12:51 | 29.76356 | 104.04855 | 22494 ft | 435 kts | 181° |
| 2026-05-05 12:51 | 29.73324 | 104.04834 | 22748 ft | 436 kts | 184° |
| 2026-05-05 12:51 | 29.70288 | 104.04716 | 23002 ft | 437 kts | 185° |
| 2026-05-05 12:52 | 29.67243 | 104.04546 | 23249 ft | 439 kts | 185° |
| 2026-05-05 12:52 | 29.64183 | 104.04366 | 23448 ft | 441 kts | 185° |
| 2026-05-05 12:52 | 29.61113 | 104.04200 | 23646 ft | 443 kts | 185° |
| 2026-05-05 12:52 | 29.58026 | 104.04052 | 23854 ft | 444 kts | 185° |
| 2026-05-05 12:53 | 29.54971 | 104.03925 | 24045 ft | 446 kts | 184° |
| 2026-05-05 12:53 | 29.51865 | 104.03811 | 24226 ft | 448 kts | 184° |
| 2026-05-05 12:53 | 29.48737 | 104.03701 | 24408 ft | 450 kts | 184° |
| 2026-05-05 12:53 | 29.45595 | 104.03591 | 24589 ft | 452 kts | 185° |
| 2026-05-05 12:54 | 29.39291 | 104.03355 | 24972 ft | 455 kts | 185° |
| 2026-05-05 12:54 | 29.36118 | 104.03282 | 25162 ft | 457 kts | 183° |
| 2026-05-05 12:54 | 29.32926 | 104.03290 | 25354 ft | 459 kts | 182° |
| 2026-05-05 12:55 | 29.29721 | 104.03355 | 25547 ft | 461 kts | 181° |
| 2026-05-05 12:55 | 29.26505 | 104.03447 | 25728 ft | 463 kts | 181° |
| 2026-05-05 12:55 | 29.23272 | 104.03540 | 25915 ft | 465 kts | 182° |
| 2026-05-05 12:55 | 29.20035 | 104.03617 | 26099 ft | 466 kts | 182° |
| 2026-05-05 12:56 | 29.16785 | 104.03676 | 26279 ft | 468 kts | 182° |
| 2026-05-05 12:56 | 29.13565 | 104.03718 | 26463 ft | 469 kts | 182° |
| 2026-05-05 12:56 | 29.10254 | 104.03754 | 26645 ft | 471 kts | 182° |
| 2026-05-05 12:56 | 29.07012 | 104.03789 | 26819 ft | 473 kts | 182° |
| 2026-05-05 12:57 | 29.03717 | 104.03826 | 27010 ft | 474 kts | 182° |
| 2026-05-05 12:57 | 29.00409 | 104.03867 | 27189 ft | 476 kts | 182° |
| 2026-05-05 12:57 | 28.97087 | 104.03912 | 27359 ft | 478 kts | 182° |
| 2026-05-05 12:57 | 28.93749 | 104.03961 | 27519 ft | 479 kts | 182° |
| 2026-05-05 12:58 | 28.90412 | 104.04010 | 27674 ft | 481 kts | 182° |
| 2026-05-05 12:58 | 28.87054 | 104.04061 | 27822 ft | 482 kts | 182° |
| 2026-05-05 12:58 | 28.83694 | 104.04112 | 27965 ft | 484 kts | 182° |
| 2026-05-05 12:58 | 28.80324 | 104.04163 | 28103 ft | 485 kts | 182° |
| 2026-05-05 12:59 | 28.76944 | 104.04211 | 28240 ft | 486 kts | 182° |
| 2026-05-05 12:59 | 28.73553 | 104.04256 | 28368 ft | 488 kts | 182° |
| 2026-05-05 12:59 | 28.70155 | 104.04301 | 28499 ft | 489 kts | 183° |
| 2026-05-05 13:00 | 28.63348 | 104.04380 | 28754 ft | 487 kts | 185° |
| 2026-05-05 13:00 | 28.59995 | 104.04037 | 28891 ft | 482 kts | 194° |
| 2026-05-05 13:01 | 28.50894 | 103.99738 | 29284 ft | 471 kts | 216° |
| 2026-05-05 13:01 | 28.48148 | 103.97796 | 29435 ft | 471 kts | 216° |
| 2026-05-05 13:01 | 28.45369 | 103.95834 | 29582 ft | 470 kts | 216° |
| 2026-05-05 13:01 | 28.42588 | 103.93871 | 29729 ft | 470 kts | 216° |
| 2026-05-05 13:02 | 28.39814 | 103.91913 | 29877 ft | 470 kts | 216° |
| 2026-05-05 13:02 | 28.37030 | 103.89952 | 30011 ft | 470 kts | 216° |
| 2026-05-05 13:02 | 28.34251 | 103.87997 | 30178 ft | 470 kts | 216° |
| 2026-05-05 13:02 | 28.31476 | 103.86046 | 30364 ft | 469 kts | 216° |
| 2026-05-05 13:03 | 28.28705 | 103.84100 | 30545 ft | 467 kts | 216° |
| 2026-05-05 13:03 | 28.25945 | 103.82161 | 30725 ft | 466 kts | 216° |
| 2026-05-05 13:03 | 28.23191 | 103.80229 | 30919 ft | 465 kts | 216° |
| 2026-05-05 13:03 | 28.20443 | 103.78302 | 31133 ft | 464 kts | 216° |
| 2026-05-05 13:04 | 28.17695 | 103.76378 | 31356 ft | 462 kts | 217° |
| 2026-05-05 13:04 | 28.14965 | 103.74465 | 31585 ft | 461 kts | 217° |
| 2026-05-05 13:04 | 28.12243 | 103.72558 | 31816 ft | 459 kts | 217° |
| 2026-05-05 13:04 | 28.09562 | 103.70683 | 32043 ft | 457 kts | 217° |
| 2026-05-05 13:05 | 28.06862 | 103.68792 | 32266 ft | 455 kts | 217° |
| 2026-05-05 13:05 | 28.04169 | 103.66909 | 32461 ft | 454 kts | 217° |
| 2026-05-05 13:05 | 28.01490 | 103.65034 | 32652 ft | 453 kts | 217° |
| 2026-05-05 13:05 | 27.98810 | 103.63160 | 32911 ft | 451 kts | 217° |
| 2026-05-05 13:06 | 27.96146 | 103.61298 | 33164 ft | 449 kts | 217° |
| 2026-05-05 13:06 | 27.93489 | 103.59446 | 33438 ft | 447 kts | 217° |
| 2026-05-05 13:06 | 27.90846 | 103.57610 | 33730 ft | 445 kts | 217° |
| 2026-05-05 13:06 | 27.88213 | 103.55782 | 33856 ft | 443 kts | 217° |
| 2026-05-05 13:07 | 27.83003 | 103.52157 | 33895 ft | 437 kts | 217° |
| 2026-05-05 13:07 | 27.78710 | 103.49154 | 33908 ft | 436 kts | 217° |
| 2026-05-05 13:08 | 27.73548 | 103.45556 | 33915 ft | 436 kts | 217° |
| 2026-05-05 13:08 | 27.68381 | 103.41975 | 33924 ft | 436 kts | 217° |
| 2026-05-05 13:09 | 27.63214 | 103.38394 | 33926 ft | 435 kts | 217° |
| 2026-05-05 13:09 | 27.58047 | 103.34817 | 33938 ft | 436 kts | 217° |
| 2026-05-05 13:10 | 27.52868 | 103.31233 | 33943 ft | 436 kts | 216° |
| 2026-05-05 13:10 | 27.47691 | 103.27660 | 33944 ft | 436 kts | 216° |
| 2026-05-05 13:11 | 27.42263 | 103.24535 | 33958 ft | 443 kts | 206° |
| 2026-05-05 13:11 | 27.36557 | 103.22019 | 33957 ft | 443 kts | 206° |
| 2026-05-05 13:12 | 27.30818 | 103.19480 | 33977 ft | 443 kts | 206° |
| 2026-05-05 13:12 | 27.25091 | 103.16950 | 33965 ft | 442 kts | 206° |
| 2026-05-05 13:13 | 27.19362 | 103.14415 | 33962 ft | 442 kts | 206° |
| 2026-05-05 13:13 | 27.13640 | 103.11886 | 33963 ft | 442 kts | 206° |
| 2026-05-05 13:14 | 27.07908 | 103.09363 | 33971 ft | 443 kts | 206° |
| 2026-05-05 13:14 | 27.02163 | 103.06827 | 33976 ft | 443 kts | 206° |
| 2026-05-05 13:15 | 26.96420 | 103.04295 | 33987 ft | 444 kts | 206° |
| 2026-05-05 13:15 | 26.93576 | 103.03040 | 33706 ft | 447 kts | 205° |
| 2026-05-05 13:15 | 26.90684 | 103.01767 | 33059 ft | 448 kts | 206° |
| 2026-05-05 13:16 | 26.87779 | 103.00491 | 32538 ft | 450 kts | 205° |
| 2026-05-05 13:16 | 26.84853 | 102.99206 | 31954 ft | 452 kts | 205° |
| 2026-05-05 13:16 | 26.81876 | 102.97900 | 31287 ft | 455 kts | 204° |
| 2026-05-05 13:16 | 26.78957 | 102.96619 | 30589 ft | 459 kts | 204° |
| 2026-05-05 13:17 | 26.75971 | 102.95309 | 29892 ft | 463 kts | 203° |
| 2026-05-05 13:17 | 26.72958 | 102.93988 | 29100 ft | 464 kts | 204° |
| 2026-05-05 13:17 | 26.69959 | 102.92675 | 28329 ft | 463 kts | 204° |
| 2026-05-05 13:17 | 26.66967 | 102.91367 | 27585 ft | 461 kts | 204° |
| 2026-05-05 13:18 | 26.63977 | 102.90060 | 26857 ft | 460 kts | 204° |
| 2026-05-05 13:18 | 26.60994 | 102.88757 | 26146 ft | 459 kts | 204° |
| 2026-05-05 13:18 | 26.58020 | 102.87456 | 25456 ft | 459 kts | 204° |
| 2026-05-05 13:18 | 26.55055 | 102.86160 | 24881 ft | 455 kts | 204° |
| 2026-05-05 13:19 | 26.52120 | 102.84879 | 24323 ft | 450 kts | 204° |
| 2026-05-05 13:19 | 26.49217 | 102.83612 | 23782 ft | 445 kts | 204° |
| 2026-05-05 13:19 | 26.46348 | 102.82360 | 23186 ft | 440 kts | 205° |
| 2026-05-05 13:19 | 26.43512 | 102.81126 | 22555 ft | 435 kts | 204° |
| 2026-05-05 13:20 | 26.40709 | 102.79908 | 21937 ft | 429 kts | 205° |
| 2026-05-05 13:20 | 26.37940 | 102.78704 | 21325 ft | 425 kts | 205° |
| 2026-05-05 13:20 | 26.35204 | 102.77512 | 20710 ft | 419 kts | 205° |
| 2026-05-05 13:20 | 26.32518 | 102.76344 | 20126 ft | 410 kts | 205° |
| 2026-05-05 13:21 | 26.29892 | 102.75204 | 19648 ft | 398 kts | 205° |
| 2026-05-05 13:21 | 26.27330 | 102.74092 | 19413 ft | 394 kts | 205° |
| 2026-05-05 13:21 | 26.24819 | 102.73000 | 19191 ft | 392 kts | 205° |
| 2026-05-05 13:21 | 26.22250 | 102.71882 | 18977 ft | 390 kts | 205° |
| 2026-05-05 13:22 | 26.19756 | 102.70801 | 18760 ft | 389 kts | 204° |
| 2026-05-05 13:22 | 26.17149 | 102.69969 | 18536 ft | 392 kts | 195° |
| 2026-05-05 13:22 | 26.14433 | 102.69621 | 18319 ft | 395 kts | 186° |
| 2026-05-05 13:22 | 26.11676 | 102.69767 | 18060 ft | 399 kts | 176° |
| 2026-05-05 13:23 | 26.08933 | 102.70259 | 17809 ft | 399 kts | 175° |
| 2026-05-05 13:23 | 26.06203 | 102.70759 | 17563 ft | 397 kts | 175° |
| 2026-05-05 13:23 | 26.03475 | 102.71254 | 17302 ft | 397 kts | 175° |
| 2026-05-05 13:23 | 26.00749 | 102.71745 | 17044 ft | 397 kts | 175° |
| 2026-05-05 13:24 | 25.98030 | 102.72235 | 16774 ft | 393 kts | 175° |
| 2026-05-05 13:24 | 25.95412 | 102.72712 | 16540 ft | 370 kts | 175° |
| 2026-05-05 13:24 | 25.92941 | 102.73165 | 16286 ft | 349 kts | 175° |
| 2026-05-05 13:24 | 25.90596 | 102.73591 | 16061 ft | 336 kts | 175° |
| 2026-05-05 13:25 | 25.88312 | 102.74005 | 15814 ft | 331 kts | 173° |
| 2026-05-05 13:25 | 25.86093 | 102.74718 | 15631 ft | 334 kts | 161° |
| 2026-05-05 13:25 | 25.84022 | 102.75926 | 15653 ft | 339 kts | 149° |
| 2026-05-05 13:25 | 25.82089 | 102.77441 | 15654 ft | 341 kts | 148° |
| 2026-05-05 13:26 | 25.80156 | 102.78961 | 15659 ft | 340 kts | 148° |
| 2026-05-05 13:26 | 25.78224 | 102.80474 | 15657 ft | 339 kts | 148° |
| 2026-05-05 13:26 | 25.76349 | 102.81945 | 15653 ft | 322 kts | 148° |
| 2026-05-05 13:26 | 25.74535 | 102.83369 | 15655 ft | 318 kts | 148° |
| 2026-05-05 13:27 | 25.72841 | 102.84963 | 15535 ft | 321 kts | 140° |
| 2026-05-05 13:27 | 25.71215 | 102.86642 | 15300 ft | 318 kts | 140° |
| 2026-05-05 13:27 | 25.69597 | 102.88319 | 15062 ft | 318 kts | 140° |
| 2026-05-05 13:27 | 25.67990 | 102.89984 | 14834 ft | 315 kts | 140° |
| 2026-05-05 13:28 | 25.66390 | 102.91638 | 14609 ft | 315 kts | 141° |
| 2026-05-05 13:28 | 25.64794 | 102.93285 | 14377 ft | 313 kts | 140° |
| 2026-05-05 13:28 | 25.63198 | 102.94934 | 14144 ft | 314 kts | 140° |
| 2026-05-05 13:28 | 25.61601 | 102.96583 | 13920 ft | 314 kts | 141° |
| 2026-05-05 13:29 | 25.60007 | 102.98228 | 13681 ft | 312 kts | 140° |
| 2026-05-05 13:30 | 25.59066 | 102.99195 | 13500 ft | 310 kts | 140° |
| 2026-05-05 13:30 | 25.57512 | 103.00794 | 13292 ft | 306 kts | 140° |
| 2026-05-05 13:30 | 25.55994 | 103.02367 | 13020 ft | 292 kts | 140° |
| 2026-05-05 13:30 | 25.54536 | 103.03879 | 12809 ft | 285 kts | 141° |
| 2026-05-05 13:31 | 25.53101 | 103.05363 | 12559 ft | 280 kts | 141° |
| 2026-05-05 13:31 | 25.51678 | 103.06830 | 12320 ft | 278 kts | 141° |
| 2026-05-05 13:31 | 25.50268 | 103.08282 | 12070 ft | 276 kts | 141° |
| 2026-05-05 13:31 | 25.48892 | 103.09754 | 11821 ft | 274 kts | 136° |
| 2026-05-05 13:32 | 25.47726 | 103.11362 | 11653 ft | 259 kts | 133° |
| 2026-05-05 13:32 | 25.46638 | 103.12882 | 11524 ft | 246 kts | 133° |
| 2026-05-05 13:32 | 25.45587 | 103.14339 | 11407 ft | 240 kts | 134° |
| 2026-05-05 13:32 | 25.44547 | 103.15774 | 11207 ft | 238 kts | 133° |
| 2026-05-05 13:33 | 25.43509 | 103.17201 | 10979 ft | 237 kts | 133° |
| 2026-05-05 13:33 | 25.42383 | 103.18490 | 10734 ft | 228 kts | 152° |
| 2026-05-05 13:33 | 25.40974 | 103.19160 | 10514 ft | 216 kts | 175° |
| 2026-05-05 13:33 | 25.39525 | 103.19176 | 10275 ft | 204 kts | 198° |
| 2026-05-05 13:34 | 25.38238 | 103.18625 | 10040 ft | 196 kts | 217° |
| 2026-05-05 13:34 | 25.37162 | 103.17721 | 9812 ft | 193 kts | 223° |
| 2026-05-05 13:34 | 25.36111 | 103.16810 | 9708 ft | 191 kts | 223° |
| 2026-05-05 13:34 | 25.35066 | 103.15909 | 9713 ft | 192 kts | 223° |
| 2026-05-05 13:35 | 25.34009 | 103.14998 | 9714 ft | 192 kts | 222° |
| 2026-05-05 13:35 | 25.32952 | 103.14087 | 9722 ft | 192 kts | 222° |
| 2026-05-05 13:35 | 25.31912 | 103.13185 | 9733 ft | 193 kts | 223° |
| 2026-05-05 13:35 | 25.30868 | 103.12262 | 9746 ft | 193 kts | 223° |
| 2026-05-05 13:36 | 25.29836 | 103.11329 | 9749 ft | 192 kts | 224° |
| 2026-05-05 13:36 | 25.28807 | 103.10393 | 9742 ft | 192 kts | 223° |
| 2026-05-05 13:36 | 25.27763 | 103.09469 | 9760 ft | 193 kts | 222° |
| 2026-05-05 13:36 | 25.26710 | 103.08545 | 9773 ft | 193 kts | 221° |
| 2026-05-05 13:37 | 25.25654 | 103.07623 | 9764 ft | 193 kts | 222° |
| 2026-05-05 13:37 | 25.24953 | 103.07010 | 9772 ft | 194 kts | 222° |
| 2026-05-05 13:37 | 25.23537 | 103.05773 | 9703 ft | 195 kts | 222° |
| 2026-05-05 13:37 | 25.22478 | 103.04849 | 9496 ft | 193 kts | 222° |
| 2026-05-05 13:38 | 25.21425 | 103.03930 | 9258 ft | 190 kts | 222° |
| 2026-05-05 13:38 | 25.20417 | 103.03053 | 9039 ft | 179 kts | 221° |
| 2026-05-05 13:38 | 25.19776 | 103.02493 | 8891 ft | 175 kts | 221° |
| 2026-05-05 13:38 | 25.18838 | 103.01674 | 8653 ft | 167 kts | 221° |
| 2026-05-05 13:39 | 25.17929 | 103.00880 | 8466 ft | 168 kts | 222° |
| 2026-05-05 13:39 | 25.17010 | 103.00078 | 8242 ft | 168 kts | 221° |
| 2026-05-05 13:39 | 25.16108 | 102.99308 | 8028 ft | 160 kts | 220° |
| 2026-05-05 13:39 | 25.15229 | 102.98537 | 7824 ft | 161 kts | 220° |
| 2026-05-05 13:40 | 25.14362 | 102.97754 | 7626 ft | 163 kts | 218° |
| 2026-05-05 13:40 | 25.13479 | 102.96989 | 7407 ft | 160 kts | 219° |
| 2026-05-05 13:40 | 25.12603 | 102.96223 | 7129 ft | 160 kts | 218° |
| 2026-05-05 13:40 | 25.11728 | 102.95465 | 6929 ft | 158 kts | 219° |
| 2026-05-05 13:41 | 25.10901 | 102.94747 | 6897 ft | 135 kts | 218° |
| 2026-05-05 13:41 | 25.10310 | 102.94237 | 6898 ft | 82 kts | 218° |
| 2026-05-05 13:41 | 25.10069 | 102.93999 | 6896 ft | 27 kts | 240° |
| 2026-05-05 13:41 | 25.09989 | 102.93820 | 6896 ft | 25 kts | 246° |
| 2026-05-05 13:42 | 25.09976 | 102.93698 | 6897 ft | 15 kts | 303° |
| 2026-05-05 13:42 | 25.10034 | 102.93614 | 6897 ft | 13 kts | 306° |
| 2026-05-05 13:42 | 25.10081 | 102.93543 | 6897 ft | 11 kts | 306° |
| 2026-05-05 13:42 | 25.10114 | 102.93479 | 6897 ft | 9 kts | 291° |
| 2026-05-05 13:43 | 25.10131 | 102.93424 | 6897 ft | 6 kts | 310° |
| 2026-05-05 13:43 | 25.10164 | 102.93414 | 6897 ft | 4 kts | 1° |
| 2026-05-05 13:43 | 25.10184 | 102.93417 | 6897 ft | 2 kts | 10° |
| 2026-05-05 13:43 | 25.10197 | 102.93420 | 6897 ft | 2 kts | 10° |
| 2026-05-05 13:44 | 25.10208 | 102.93422 | 6897 ft | 1 kts | 8° |
| 2026-05-05 13:44 | 25.10213 | 102.93422 | 6897 ft | 0 kts | 7° |